createdAt,value
2018-12-20T00:02:05.304Z,19.83
2018-12-20T00:04:39.980Z,19.03
2018-12-20T00:07:15.228Z,20.73
2018-12-20T00:09:50.862Z,19.40
2018-12-20T00:12:25.714Z,17.97
2018-12-20T00:15:00.691Z,19.90
2018-12-20T00:17:41.118Z,18.37
2018-12-20T00:20:16.671Z,18.70
2018-12-20T00:22:51.440Z,19.93
2018-12-20T00:25:26.532Z,18.17
2018-12-20T00:28:01.741Z,18.60
2018-12-20T00:30:37.137Z,17.87
2018-12-20T00:33:12.481Z,18.27
2018-12-20T00:35:47.075Z,17.77
2018-12-20T00:38:21.746Z,18.43
2018-12-20T00:40:56.373Z,18.00
2018-12-20T00:43:31.692Z,18.67
2018-12-20T00:46:06.756Z,17.67
2018-12-20T00:48:41.284Z,17.23
2018-12-20T00:51:16.718Z,16.13
2018-12-20T00:53:51.520Z,15.70
2018-12-20T00:56:26.851Z,15.23
2018-12-20T00:59:01.390Z,14.53
2018-12-20T01:01:36.399Z,14.80
2018-12-20T01:04:11.987Z,14.87
2018-12-20T01:06:46.558Z,13.77
2018-12-20T01:09:21.595Z,13.90
2018-12-20T01:11:56.008Z,13.80
2018-12-20T01:14:30.917Z,13.40
2018-12-20T01:17:05.803Z,13.53
2018-12-20T01:19:40.488Z,13.87
2018-12-20T01:22:16.330Z,14.03
2018-12-20T01:24:51.047Z,13.50
2018-12-20T01:27:25.695Z,14.43
2018-12-20T01:30:00.746Z,13.33
2018-12-20T01:32:35.175Z,13.77
2018-12-20T01:35:10.331Z,13.50
2018-12-20T01:37:44.871Z,12.70
2018-12-20T01:40:19.933Z,13.90
2018-12-20T01:42:54.639Z,13.60
2018-12-20T01:45:29.505Z,13.73
2018-12-20T01:48:04.667Z,13.77
2018-12-20T01:50:39.644Z,13.27
2018-12-20T01:53:14.676Z,14.10
2018-12-20T01:55:49.468Z,13.90
2018-12-20T01:58:24.640Z,13.47
2018-12-20T02:00:59.831Z,13.63
2018-12-20T02:03:34.427Z,13.37
2018-12-20T02:06:09.610Z,14.63
2018-12-20T02:08:44.150Z,15.27
2018-12-20T02:11:18.835Z,15.00
2018-12-20T02:13:53.483Z,14.47
2018-12-20T02:16:28.993Z,14.77
2018-12-20T02:19:04.243Z,14.30
2018-12-20T02:21:39.929Z,14.73
2018-12-20T02:24:14.810Z,15.47
2018-12-20T02:26:50.408Z,14.63
2018-12-20T02:29:26.524Z,14.73
2018-12-20T02:32:01.488Z,15.47
2018-12-20T02:34:36.418Z,14.70
2018-12-20T02:37:11.649Z,14.77
2018-12-20T02:39:46.890Z,14.20
2018-12-20T02:42:21.459Z,13.90
2018-12-20T02:44:56.135Z,13.97
2018-12-20T02:47:30.942Z,14.70
2018-12-20T02:50:06.126Z,14.20
2018-12-20T02:52:40.860Z,14.33
2018-12-20T02:55:16.005Z,13.70
2018-12-20T02:57:50.904Z,13.33
2018-12-20T03:00:26.423Z,14.10
2018-12-20T03:03:01.553Z,13.53
2018-12-20T03:05:36.678Z,13.33
2018-12-20T03:08:12.004Z,13.43
2018-12-20T03:10:46.756Z,13.43
2018-12-20T03:13:21.648Z,13.00
2018-12-20T03:15:56.822Z,12.17
2018-12-20T03:18:31.586Z,13.40
2018-12-20T03:21:06.442Z,12.47
2018-12-20T03:23:41.554Z,12.23
2018-12-20T03:26:17.695Z,12.20
2018-12-20T03:28:52.199Z,11.63
2018-12-20T03:31:27.783Z,11.63
2018-12-20T03:34:03.454Z,11.33
2018-12-20T03:36:38.752Z,10.97
2018-12-20T03:39:13.774Z,11.33
2018-12-20T03:41:48.656Z,10.63
2018-12-20T03:44:23.279Z,10.57
2018-12-20T03:46:58.833Z,10.13
2018-12-20T03:49:33.638Z,10.40
2018-12-20T03:52:09.443Z,10.47
2018-12-20T03:54:44.493Z,9.63
2018-12-20T03:57:19.589Z,10.10
2018-12-20T03:59:54.822Z,10.27
2018-12-20T04:02:30.179Z,9.90
2018-12-20T04:05:05.489Z,9.83
2018-12-20T04:07:40.528Z,10.70
2018-12-20T04:10:15.532Z,10.03
2018-12-20T04:12:50.370Z,10.30
2018-12-20T04:15:25.601Z,10.47
2018-12-20T04:18:00.806Z,10.33
2018-12-20T04:20:35.596Z,9.87
2018-12-20T04:23:10.999Z,9.93
2018-12-20T04:25:45.890Z,9.73
2018-12-20T04:28:20.627Z,10.07
2018-12-20T04:30:55.549Z,9.70
2018-12-20T04:33:30.369Z,10.23
2018-12-20T04:36:05.621Z,9.93
2018-12-20T04:38:40.705Z,9.70
2018-12-20T04:41:16.575Z,8.90
2018-12-20T04:43:51.904Z,9.83
2018-12-20T04:46:27.490Z,8.87
2018-12-20T04:49:02.690Z,8.43
2018-12-20T04:51:37.666Z,8.90
2018-12-20T04:54:13.051Z,9.10
2018-12-20T04:56:48.306Z,9.10
2018-12-20T04:59:23.511Z,9.20
2018-12-20T05:01:58.697Z,8.83
2018-12-20T05:04:33.663Z,8.57
2018-12-20T05:07:08.940Z,9.20
2018-12-20T05:09:43.719Z,8.13
2018-12-20T05:12:20.710Z,8.50
2018-12-20T05:14:55.845Z,8.47
2018-12-20T05:17:31.254Z,8.17
2018-12-20T05:20:07.596Z,8.10
2018-12-20T05:22:42.631Z,7.87
2018-12-20T05:25:17.535Z,7.63
2018-12-20T05:27:52.315Z,8.33
2018-12-20T05:30:27.163Z,8.20
2018-12-20T05:33:02.877Z,7.90
2018-12-20T05:35:38.299Z,7.47
2018-12-20T05:38:13.756Z,7.40
2018-12-20T05:40:48.810Z,8.00
2018-12-20T05:43:24.034Z,7.30
2018-12-20T05:46:04.533Z,7.87
2018-12-20T05:48:36.135Z,7.90
2018-12-20T05:51:11.239Z,7.27
2018-12-20T05:53:45.815Z,7.70
2018-12-20T05:56:20.928Z,7.30
2018-12-20T05:58:55.895Z,7.53
2018-12-20T06:01:30.419Z,8.10
2018-12-20T06:04:06.372Z,7.53
2018-12-20T06:06:41.206Z,7.50
2018-12-20T06:09:16.192Z,7.57
2018-12-20T06:11:51.002Z,7.80
2018-12-20T06:14:25.960Z,8.00
2018-12-20T06:17:02.769Z,8.10
2018-12-20T06:19:37.636Z,7.73
2018-12-20T06:22:12.982Z,7.70
2018-12-20T06:24:47.697Z,8.10
2018-12-20T06:27:22.087Z,7.80
2018-12-20T06:29:57.226Z,8.00
2018-12-20T06:32:31.715Z,8.60
2018-12-20T06:35:06.821Z,8.57
2018-12-20T06:37:41.446Z,7.43
2018-12-20T06:40:16.498Z,7.70
2018-12-20T06:42:51.252Z,8.30
2018-12-20T06:45:25.795Z,8.33
2018-12-20T06:48:00.419Z,8.40
2018-12-20T06:50:35.530Z,8.40
2018-12-20T06:53:10.548Z,7.97
2018-12-20T06:55:44.994Z,7.87
2018-12-20T06:58:19.571Z,8.50
2018-12-20T07:00:54.083Z,7.50
2018-12-20T07:03:28.723Z,7.43
2018-12-20T07:06:03.806Z,8.27
2018-12-20T07:08:38.203Z,8.07
2018-12-20T07:11:13.354Z,7.83
2018-12-20T07:13:47.792Z,8.07
2018-12-20T07:16:29.146Z,8.37
2018-12-20T07:18:58.823Z,7.90
2018-12-20T07:21:33.352Z,7.93
2018-12-20T07:24:08.061Z,8.30
2018-12-20T07:26:42.470Z,8.43
2018-12-20T07:29:16.831Z,8.50
2018-12-20T07:31:51.971Z,8.27
2018-12-20T07:34:27.012Z,7.90
2018-12-20T07:37:01.358Z,8.07
2018-12-20T07:39:38.563Z,7.60
2018-12-20T07:42:12.875Z,8.23
2018-12-20T07:44:47.392Z,7.77
2018-12-20T07:47:22.211Z,7.57
2018-12-20T07:49:56.982Z,7.70
2018-12-20T07:52:31.559Z,7.63
2018-12-20T07:55:07.018Z,7.23
2018-12-20T07:57:41.747Z,7.60
2018-12-20T08:00:16.426Z,7.57
2018-12-20T08:02:51.359Z,7.40
2018-12-20T08:05:26.686Z,7.50
2018-12-20T08:08:01.633Z,7.00
2018-12-20T08:10:36.102Z,7.17
2018-12-20T08:13:10.814Z,7.47
2018-12-20T08:15:45.430Z,8.07
2018-12-20T08:18:20.369Z,7.90
2018-12-20T08:20:56.314Z,7.60
2018-12-20T08:23:30.960Z,8.07
2018-12-20T08:26:05.870Z,7.60
2018-12-20T08:28:40.311Z,7.93
2018-12-20T08:31:15.465Z,8.50
2018-12-20T08:33:49.736Z,7.77
2018-12-20T08:36:24.762Z,8.10
2018-12-20T08:38:59.686Z,7.43
2018-12-20T08:41:34.188Z,8.23
2018-12-20T08:44:08.770Z,8.10
2018-12-20T08:46:44.989Z,7.77
2018-12-20T08:49:19.506Z,8.67
2018-12-20T08:51:54.202Z,7.60
2018-12-20T08:54:28.678Z,8.43
2018-12-20T08:57:04.429Z,7.67
2018-12-20T08:59:39.217Z,7.60
2018-12-20T09:02:14.571Z,7.70
2018-12-20T09:04:49.647Z,7.57
2018-12-20T09:07:24.510Z,7.40
2018-12-20T09:09:59.574Z,7.17
2018-12-20T09:12:34.490Z,7.30
2018-12-20T09:15:10.099Z,7.07
2018-12-20T09:17:44.818Z,7.33
2018-12-20T09:20:19.451Z,6.80
2018-12-20T09:22:54.492Z,6.73
2018-12-20T09:25:29.129Z,6.83
2018-12-20T09:28:03.626Z,8.07
2018-12-20T09:30:38.318Z,5.80
2018-12-20T09:33:13.077Z,5.70
2018-12-20T09:35:48.225Z,5.40
2018-12-20T09:38:22.757Z,5.10
2018-12-20T09:40:57.704Z,5.10
2018-12-20T09:43:32.427Z,4.60
2018-12-20T09:46:06.971Z,4.83
2018-12-20T09:48:42.404Z,4.60
2018-12-20T09:51:17.110Z,4.70
2018-12-20T09:53:53.006Z,4.67
2018-12-20T09:56:28.156Z,4.53
2018-12-20T09:59:03.087Z,4.50
2018-12-20T10:01:38.454Z,5.13
2018-12-20T10:04:12.902Z,4.40
2018-12-20T10:06:47.287Z,4.73
2018-12-20T10:09:21.677Z,4.90
2018-12-20T10:11:56.586Z,4.93
2018-12-20T10:14:31.646Z,4.80
2018-12-20T10:17:06.032Z,4.70
2018-12-20T10:19:41.067Z,4.70
2018-12-20T10:22:15.770Z,4.60
2018-12-20T10:24:50.151Z,4.47
2018-12-20T10:27:31.424Z,4.37
2018-12-20T10:30:01.308Z,4.37
2018-12-20T10:32:36.305Z,4.40
2018-12-20T10:35:11.417Z,4.60
2018-12-20T10:37:46.137Z,4.63
2018-12-20T10:40:21.309Z,4.53
2018-12-20T10:42:56.410Z,4.20
2018-12-20T10:45:31.556Z,4.23
2018-12-20T10:48:06.794Z,4.10
2018-12-20T10:50:42.594Z,4.40
2018-12-20T10:53:17.388Z,4.27
2018-12-20T10:55:52.242Z,4.47
2018-12-20T10:58:26.954Z,4.10
2018-12-20T11:01:06.771Z,4.10
2018-12-20T11:03:47.827Z,4.03
2018-12-20T11:06:27.774Z,4.00
2018-12-20T11:09:08.177Z,4.10
2018-12-20T11:11:47.911Z,4.30
2018-12-20T11:14:22.551Z,3.80
2018-12-20T11:16:57.507Z,3.80
2018-12-20T11:19:31.828Z,3.97
2018-12-20T11:22:06.426Z,3.77
2018-12-20T11:24:41.332Z,3.70
2018-12-20T11:27:16.222Z,3.50
2018-12-20T11:29:50.849Z,3.90
2018-12-20T11:32:25.215Z,3.70
2018-12-20T11:34:59.490Z,3.40
2018-12-20T11:37:33.876Z,3.50
2018-12-20T11:40:09.722Z,3.47
2018-12-20T11:42:44.662Z,3.30
2018-12-20T11:45:19.354Z,3.20
2018-12-20T11:47:54.011Z,3.47
2018-12-20T11:50:29.178Z,3.40
2018-12-20T11:53:04.379Z,3.43
2018-12-20T11:55:39.199Z,3.40
2018-12-20T11:58:13.499Z,3.50
2018-12-20T12:00:47.951Z,3.70
2018-12-20T12:03:22.334Z,3.30
2018-12-20T12:05:57.595Z,3.50
2018-12-20T12:08:32.173Z,3.60
2018-12-20T12:11:07.153Z,3.77
2018-12-20T12:13:41.854Z,3.27
2018-12-20T12:16:16.613Z,3.50
2018-12-20T12:18:50.954Z,3.57
2018-12-20T12:21:25.827Z,3.50
2018-12-20T12:24:00.475Z,3.20
2018-12-20T12:26:37.721Z,3.60
2018-12-20T12:29:12.845Z,3.23
2018-12-20T12:31:47.894Z,3.63
2018-12-20T12:34:23.272Z,3.30
2018-12-20T12:36:58.183Z,3.40
2018-12-20T12:39:32.776Z,3.30
2018-12-20T12:42:07.476Z,3.30
2018-12-20T12:44:42.575Z,3.40
2018-12-20T12:47:19.340Z,3.60
2018-12-20T12:49:54.387Z,3.40
2018-12-20T12:52:29.043Z,3.50
2018-12-20T12:55:05.186Z,3.50
2018-12-20T12:57:39.551Z,3.30
2018-12-20T13:00:18.522Z,3.50
2018-12-20T13:02:53.808Z,3.07
2018-12-20T13:05:29.689Z,3.30
2018-12-20T13:08:04.931Z,3.00
2018-12-20T13:10:44.819Z,3.20
2018-12-20T13:13:19.284Z,3.30
2018-12-20T13:15:55.295Z,3.20
2018-12-20T13:18:29.935Z,3.23
2018-12-20T13:21:05.786Z,3.30
2018-12-20T13:23:40.506Z,3.10
2018-12-20T13:26:14.817Z,3.10
2018-12-20T13:28:49.443Z,2.97
2018-12-20T13:31:24.531Z,3.07
2018-12-20T13:33:58.976Z,3.20
2018-12-20T13:36:33.293Z,3.10
2018-12-20T13:39:08.698Z,3.23
2018-12-20T13:41:43.779Z,3.00
2018-12-20T13:44:18.462Z,2.87
2018-12-20T13:46:53.494Z,2.90
2018-12-20T13:49:27.938Z,2.87
2018-12-20T13:52:02.694Z,3.20
2018-12-20T13:54:37.000Z,2.90
2018-12-20T13:57:11.651Z,3.40
2018-12-20T13:59:46.137Z,3.10
2018-12-20T14:02:20.789Z,3.00
2018-12-20T14:04:56.930Z,2.93
2018-12-20T14:07:31.966Z,3.10
2018-12-20T14:10:08.670Z,3.40
2018-12-20T14:12:44.084Z,3.33
2018-12-20T14:15:18.874Z,3.33
2018-12-20T14:17:53.712Z,3.50
2018-12-20T14:20:28.444Z,3.43
2018-12-20T14:23:03.431Z,3.60
2018-12-20T14:25:38.659Z,3.90
2018-12-20T14:28:13.902Z,3.13
2018-12-20T14:30:49.252Z,3.50
2018-12-20T14:33:25.107Z,3.57
2018-12-20T14:36:00.510Z,3.67
2018-12-20T14:38:35.208Z,3.83
2018-12-20T14:41:10.447Z,3.70
2018-12-20T14:43:45.551Z,3.23
2018-12-20T14:46:20.479Z,3.10
2018-12-20T14:48:54.904Z,3.30
2018-12-20T14:51:29.366Z,3.80
2018-12-20T14:54:04.733Z,3.40
2018-12-20T14:56:39.439Z,3.83
2018-12-20T14:59:14.386Z,3.57
2018-12-20T15:01:48.798Z,3.23
2018-12-20T15:04:23.248Z,3.83
2018-12-20T15:06:57.699Z,4.40
2018-12-20T15:09:32.228Z,3.50
2018-12-20T15:12:07.458Z,3.70
2018-12-20T15:14:42.313Z,12.33
2018-12-20T15:17:16.891Z,5.70
2018-12-20T15:19:51.553Z,5.33
2018-12-20T15:22:26.070Z,4.60
2018-12-20T15:25:01.025Z,3.97
2018-12-20T15:27:35.810Z,3.90
2018-12-20T15:30:12.018Z,4.33
2018-12-20T15:32:46.842Z,4.20
2018-12-20T15:35:21.766Z,4.07
2018-12-20T15:37:56.923Z,4.30
2018-12-20T15:40:31.519Z,4.10
2018-12-20T15:43:06.446Z,4.23
2018-12-20T15:45:40.918Z,4.00
2018-12-20T15:48:17.555Z,4.23
2018-12-20T15:50:52.162Z,4.27
2018-12-20T15:53:27.218Z,4.30
2018-12-20T15:56:02.606Z,4.20
2018-12-20T15:58:37.622Z,5.03
2018-12-20T16:01:12.727Z,3.93
2018-12-20T16:03:47.254Z,4.97
2018-12-20T16:06:22.219Z,4.17
2018-12-20T16:08:57.093Z,4.70
2018-12-20T16:11:32.598Z,5.43
2018-12-20T16:14:07.023Z,5.17
2018-12-20T16:16:41.864Z,4.83
2018-12-20T16:19:16.478Z,6.53
2018-12-20T16:21:51.091Z,5.97
2018-12-20T16:24:25.676Z,4.20
2018-12-20T16:27:01.262Z,4.60
2018-12-20T16:29:35.681Z,4.20
2018-12-20T16:32:10.598Z,4.47
2018-12-20T16:34:45.331Z,4.50
2018-12-20T16:37:19.912Z,4.17
2018-12-20T16:39:54.788Z,4.30
2018-12-20T16:42:29.641Z,4.17
2018-12-20T16:45:05.711Z,4.30
2018-12-20T16:47:41.023Z,4.57
2018-12-20T16:50:16.125Z,7.47
2018-12-20T16:55:50.711Z,5.83
2018-12-20T16:58:25.347Z,6.43
2018-12-20T17:00:59.898Z,5.63
2018-12-20T17:03:34.230Z,5.30
2018-12-20T17:06:09.020Z,5.80
2018-12-20T17:08:48.116Z,6.07
2018-12-20T17:11:20.594Z,5.23
2018-12-20T17:13:55.471Z,5.20
2018-12-20T17:16:30.679Z,5.00
2018-12-20T17:19:05.010Z,5.70
2018-12-20T17:21:40.574Z,5.20
2018-12-20T17:24:18.400Z,5.70
2018-12-20T17:26:54.764Z,5.53
2018-12-20T17:29:29.909Z,5.83
2018-12-20T17:32:05.453Z,6.20
2018-12-20T17:34:40.238Z,15.13
2018-12-20T17:37:15.226Z,12.03
2018-12-20T17:39:50.398Z,8.90
2018-12-20T17:42:25.951Z,7.00
2018-12-20T17:45:01.862Z,12.20
2018-12-20T17:47:37.027Z,15.90
2018-12-20T17:50:12.247Z,21.83
2018-12-20T17:52:47.519Z,14.87
2018-12-20T17:55:23.967Z,10.43
2018-12-20T17:57:58.601Z,8.40
2018-12-20T18:00:33.283Z,9.40
2018-12-20T18:03:08.295Z,7.80
2018-12-20T18:05:42.753Z,7.00
2018-12-20T18:08:17.536Z,22.63
2018-12-20T18:10:52.886Z,16.03
2018-12-20T18:13:28.726Z,16.90
2018-12-20T18:16:03.923Z,13.00
2018-12-20T18:18:38.242Z,11.73
2018-12-20T18:21:12.679Z,12.57
2018-12-20T18:23:47.409Z,11.63
2018-12-20T18:26:22.398Z,10.67
2018-12-20T18:28:56.671Z,7.63
2018-12-20T18:31:31.163Z,7.67
2018-12-20T18:34:16.027Z,6.83
2018-12-20T18:36:50.918Z,6.70
2018-12-20T18:39:25.755Z,10.03
2018-12-20T18:42:00.222Z,17.40
2018-12-20T18:44:34.646Z,19.40
2018-12-20T18:47:09.649Z,16.93
2018-12-20T18:49:47.602Z,8.30
2018-12-20T18:52:21.760Z,7.07
2018-12-20T18:54:56.545Z,7.80
2018-12-20T18:57:31.265Z,8.37
2018-12-20T19:00:09.234Z,7.07
2018-12-20T19:02:55.675Z,9.57
2018-12-20T19:11:23.088Z,5.63
2018-12-20T19:13:59.034Z,5.23
2018-12-20T19:16:33.870Z,5.20
2018-12-20T19:19:17.537Z,4.57
2018-12-20T19:21:52.444Z,4.33
2018-12-20T19:24:26.825Z,4.23
2018-12-20T19:27:01.366Z,4.20
2018-12-20T19:29:36.471Z,8.33
2018-12-20T19:32:11.434Z,7.93
2018-12-20T19:34:45.919Z,6.30
2018-12-20T19:37:20.991Z,4.40
2018-12-20T19:40:00.889Z,4.97
2018-12-20T19:42:36.431Z,4.43
2018-12-20T19:45:11.358Z,4.00
2018-12-20T19:47:46.010Z,4.27
2018-12-20T19:50:21.906Z,4.07
2018-12-20T19:52:57.005Z,5.20
2018-12-20T19:55:31.726Z,4.30
2018-12-20T19:58:06.883Z,4.23
2018-12-20T20:00:41.551Z,4.30
2018-12-20T20:03:16.329Z,4.23
2018-12-20T20:05:51.722Z,3.97
2018-12-20T20:08:30.598Z,4.13
2018-12-20T20:11:06.260Z,4.20
2018-12-20T20:13:40.603Z,4.50
2018-12-20T20:16:15.069Z,6.23
2018-12-20T20:18:49.914Z,9.50
2018-12-20T20:21:24.586Z,11.50
2018-12-20T20:23:58.871Z,17.67
2018-12-20T20:26:34.767Z,17.37
2018-12-20T20:29:11.667Z,10.47
2018-12-20T20:31:46.416Z,15.60
2018-12-20T20:34:21.298Z,6.50
2018-12-20T20:36:56.230Z,5.20
2018-12-20T20:39:31.956Z,6.53
2018-12-20T20:42:07.261Z,6.27
2018-12-20T20:44:42.092Z,4.70
2018-12-20T20:47:16.634Z,5.10
2018-12-20T20:49:53.405Z,4.40
2018-12-20T20:52:28.658Z,4.50
2018-12-20T20:55:08.755Z,5.00
2018-12-20T20:57:51.908Z,4.50
2018-12-20T21:00:26.905Z,4.87
2018-12-20T21:03:05.328Z,4.57
2018-12-20T21:05:43.247Z,4.50
2018-12-20T21:08:20.069Z,4.70
2018-12-20T21:10:58.462Z,4.83
2018-12-20T21:13:46.006Z,5.13
2018-12-20T21:16:20.571Z,4.87
2018-12-20T21:18:59.942Z,4.43
2018-12-20T21:21:38.069Z,4.90
2018-12-20T21:24:26.714Z,4.90
2018-12-20T21:27:01.052Z,4.80
2018-12-20T21:29:48.966Z,4.67
2018-12-20T21:32:23.967Z,4.93
2018-12-20T21:35:02.745Z,5.23
2018-12-20T21:37:39.014Z,5.00
2018-12-20T21:43:16.101Z,5.10
2018-12-20T21:46:05.632Z,5.50
2018-12-20T21:48:46.098Z,5.20
2018-12-20T21:51:32.957Z,6.53
2018-12-20T21:54:14.182Z,5.30
2018-12-20T21:56:52.859Z,5.93
2018-12-20T21:59:46.023Z,5.60
2018-12-20T22:02:26.764Z,5.00
2018-12-20T22:05:03.963Z,5.03
2018-12-20T22:07:41.523Z,5.20
2018-12-20T22:10:19.016Z,5.10
2018-12-20T22:13:00.561Z,5.30
2018-12-20T22:21:31.611Z,5.10
2018-12-20T22:24:28.137Z,5.00
2018-12-20T22:27:27.153Z,5.00
2018-12-20T22:30:14.380Z,4.70
2018-12-20T22:32:56.797Z,5.20
2018-12-20T22:35:35.934Z,5.10
2018-12-20T22:38:31.619Z,4.90
2018-12-20T22:41:08.113Z,4.40
2018-12-20T22:43:47.095Z,4.83
2018-12-20T22:46:25.065Z,4.90
2018-12-20T22:49:05.919Z,4.80
2018-12-20T22:51:40.427Z,4.50
2018-12-20T22:54:16.911Z,4.80
2018-12-20T22:56:54.768Z,4.73
2018-12-20T22:59:38.347Z,4.80
2018-12-20T23:02:18.457Z,4.60
2018-12-20T23:04:55.650Z,4.90
2018-12-20T23:07:37.146Z,4.60
2018-12-20T23:10:21.559Z,4.70
2018-12-20T23:13:02.578Z,4.50
2018-12-20T23:15:43.487Z,4.57
2018-12-20T23:18:25.096Z,4.70
2018-12-20T23:21:06.058Z,4.60
2018-12-20T23:23:40.759Z,4.50
2018-12-20T23:26:15.912Z,4.70
2018-12-20T23:28:50.301Z,4.47
2018-12-20T23:31:25.135Z,4.77
2018-12-20T23:34:00.091Z,4.80
2018-12-20T23:36:34.485Z,4.70
2018-12-20T23:39:09.526Z,4.70
2018-12-20T23:41:44.505Z,5.23
2018-12-20T23:44:19.181Z,5.33
2018-12-20T23:46:53.671Z,4.57
2018-12-20T23:49:28.107Z,4.67
2018-12-20T23:52:02.727Z,4.93
2018-12-20T23:54:37.573Z,4.60
2018-12-20T23:57:12.365Z,4.73
2018-12-20T23:59:47.439Z,4.90
